^^
BelgradeWeatherLive.com Historical Data
 
Daily Summary for June 04, 2020 Units:  English    Metric   Both
Daily Weekly Monthly Yearly Custom
  Current: High: Low: Average:
Temperature: 54.7 °F 61.7 °F 54.7 °F 58.2 °F
Dew Point: 45.5 °F 47 °F 45.3 °F 46.2 °F
Humidity: 71% 71% 56% 65%
Wind Speed: 0.3mph 1.5mph 0mph 0.6mph
Wind Gust: 3.4mph 6.9mph - -
WindSouth - - SSW
Pressure: 30.10 in 30.13 in 30.10 in -
Precipitation: 0.00 in      
Historical Graphs
 
 
Tabular Data for June 04, 2020
Time Temperature Dew Point Pressure Wind Wind Speed Wind Gust Humidity Rainfall Rate (Hourly) Solar Radiation
00:04 61.7 °F 46.1 °F 30.13 in SSE 0.6 mph 3.4 mph 56.4% 0.00 in 0 W/m2
00:09 61.5 °F 46.2 °F 30.13 in SSW 0.5 mph 3.4 mph 56.9% 0.00 in 0 W/m2
00:14 61.3 °F 46 °F 30.13 in South 0.9 mph 4.5 mph 57% 0.00 in 0 W/m2
00:19 61.5 °F 46.2 °F 30.13 in SSW 1.5 mph 3.4 mph 57% 0.00 in 0 W/m2
00:24 61.7 °F 46 °F 30.12 in SSW 1.3 mph 3.4 mph 56.2% 0.00 in 0 W/m2
00:29 61.6 °F 45.8 °F 30.13 in South 1.4 mph 3.4 mph 56% 0.00 in 0 W/m2
00:34 61.6 °F 46.1 °F 30.13 in South 0.8 mph 3.4 mph 56.7% 0.00 in 0 W/m2
00:39 61.4 °F 46.1 °F 30.12 in SSE 0.4 mph 2.2 mph 57% 0.00 in 0 W/m2
00:44 61.3 °F 46 °F 30.13 in SSW 1 mph 3.4 mph 57% 0.00 in 0 W/m2
00:49 61.2 °F 46.2 °F 30.12 in South 1.3 mph 6.9 mph 57.9% 0.00 in 0 W/m2
00:54 60.9 °F 46.5 °F 30.12 in SSW 1.4 mph 4.5 mph 58.9% 0.00 in 0 W/m2
00:59 60.5 °F 46.5 °F 30.12 in SSW 0.4 mph 3.4 mph 59.9% 0.00 in 0 W/m2
01:04 60.3 °F 46.6 °F 30.12 in SSW 0.5 mph 2.2 mph 60.6% 0.00 in 0 W/m2
01:09 60 °F 46.6 °F 30.12 in SSW 0.6 mph 2.2 mph 61.5% 0.00 in 0 W/m2
01:14 59.7 °F 46.7 °F 30.12 in SSW 0.8 mph 2.2 mph 61.8% 0.00 in 0 W/m2
01:19 59.6 °F 46.7 °F 30.12 in Calm   2.2 mph 62% 0.00 in 0 W/m2
01:24 59.6 °F 46.7 °F 30.12 in WSW 0.7 mph 2.2 mph 62% 0.00 in 0 W/m2
01:29 59.5 °F 46.5 °F 30.12 in SW 0.5 mph 2.2 mph 62% 0.00 in 0 W/m2
01:34 59.2 °F 46.6 °F 30.12 in SSW 0.1 mph 2.2 mph 63% 0.00 in 0 W/m2
01:39 58.9 °F 46.3 °F 30.12 in SW 0.2 mph 1.1 mph 63.2% 0.00 in 0 W/m2
01:44 58.6 °F 46.6 °F 30.12 in SSW 0.1 mph 1.1 mph 64% 0.00 in 0 W/m2
01:49 58.6 °F 46.8 °F 30.11 in SSW 0.4 mph 2.2 mph 64.5% 0.00 in 0 W/m2
01:54 58.5 °F 46.9 °F 30.12 in SSW 0.5 mph 1.1 mph 65.1% 0.00 in 0 W/m2
01:59 58.4 °F 47 °F 30.12 in South 0.2 mph 2.2 mph 65.9% 0.00 in 0 W/m2
02:04 58.1 °F 46.8 °F 30.12 in South 1.1 mph 3.4 mph 66.1% 0.00 in 0 W/m2
02:14 57.6 °F 46.8 °F 30.11 in SSW 0.3 mph 1.1 mph 67% 0.00 in 0 W/m2
02:19 57.5 °F 46.7 °F 30.11 in SSE 0.3 mph 3.4 mph 67% 0.00 in 0 W/m2
02:24 57.4 °F 46.6 °F 30.12 in SSE 0.7 mph 3.4 mph 67% 0.00 in 0 W/m2
02:29 57.5 °F 46.7 °F 30.11 in South 0.3 mph 2.2 mph 67% 0.00 in 0 W/m2
02:34 57.3 °F 46.6 °F 30.11 in SSW 0.2 mph 2.2 mph 67.4% 0.00 in 0 W/m2
02:39 57 °F 46.6 °F 30.11 in SSW 0.2 mph 1.1 mph 68% 0.00 in 0 W/m2
02:44 57 °F 46.6 °F 30.12 in SW 0.2 mph 1.1 mph 68% 0.00 in 0 W/m2
02:49 57 °F 46.5 °F 30.12 in NNE 0.6 mph 2.2 mph 67.7% 0.00 in 0 W/m2
02:54 56.8 °F 46.3 °F 30.11 in NNW 1 mph 2.2 mph 67.7% 0.00 in 0 W/m2
02:59 57 °F 46 °F 30.11 in SSW 0.2 mph 2.2 mph 66.5% 0.00 in 0 W/m2
03:04 57 °F 46.2 °F 30.12 in SSE 0.7 mph 2.2 mph 67.1% 0.00 in 0 W/m2
03:09 56.7 °F 45.9 °F 30.12 in South 0.1 mph 2.2 mph 67% 0.00 in 0 W/m2
03:14 56.7 °F 46.2 °F 30.12 in West 0.4 mph 2.2 mph 67.9% 0.00 in 0 W/m2
03:19 56.6 °F 46.2 °F 30.11 in Calm   1.1 mph 68.1% 0.00 in 0 W/m2
03:24 56.4 °F 46 °F 30.11 in South 0.5 mph 1.1 mph 68.1% 0.00 in 0 W/m2
03:28 56.4 °F 46.1 °F 30.11 in South 0.9 mph 2.2 mph 68.5% 0.00 in 0 W/m2
03:39 55.9 °F 45.8 °F 30.11 in Calm   1.1 mph 68.8% 0.00 in 0 W/m2
03:44 55.9 °F 45.9 °F 30.11 in SW 0.4 mph 1.1 mph 68.9% 0.00 in 0 W/m2
03:49 55.9 °F 45.8 °F 30.11 in SSW 0.6 mph 2.2 mph 69% 0.00 in 0 W/m2
03:54 55.7 °F 45.6 °F 30.11 in SW 0.2 mph 1.1 mph 69% 0.00 in 0 W/m2
03:59 55.6 °F 45.5 °F 30.11 in SSE 0.8 mph 2.2 mph 69% 0.00 in 0 W/m2
04:04 55.6 °F 45.5 °F 30.10 in SSE 0.9 mph 2.2 mph 69% 0.00 in 0 W/m2
04:09 55.6 °F 45.5 °F 30.10 in SW 0.5 mph 2.2 mph 69% 0.00 in 0 W/m2
04:14 55.4 °F 45.3 °F 30.10 in SSW 1.5 mph 4.5 mph 69% 0.00 in 0 W/m2
04:19 55.3 °F 45.7 °F 30.10 in SSW 0.6 mph 3.4 mph 69.8% 0.00 in 0 W/m2
04:24 55 °F 45.6 °F 30.10 in SSW 0.7 mph 3.4 mph 70.4% 0.00 in 0 W/m2
04:26 54.7 °F 45.5 °F 30.10 in South 0.3 mph 3.4 mph 71% 0.00 in 0 W/m2
Compliments of Weather Underground - 4 mb